sensor_id;sensor_type;location;lat;lon;timestamp;P1;durP1;ratioP1;P2;durP2;ratioP2
50988;SDS011;37008;52.210;21.112;2023-04-01T00:01:37;24.70;;;18.67;;
50988;SDS011;37008;52.210;21.112;2023-04-01T00:04:03;27.33;;;18.73;;
50988;SDS011;37008;52.210;21.112;2023-04-01T00:06:28;27.10;;;17.65;;
50988;SDS011;37008;52.210;21.112;2023-04-01T00:08:54;29.88;;;19.10;;
50988;SDS011;37008;52.210;21.112;2023-04-01T00:11:20;27.63;;;17.90;;
50988;SDS011;37008;52.210;21.112;2023-04-01T00:13:46;31.55;;;18.88;;
50988;SDS011;37008;52.210;21.112;2023-04-01T00:16:12;36.35;;;19.75;;
50988;SDS011;37008;52.210;21.112;2023-04-01T00:18:38;32.78;;;19.13;;
50988;SDS011;37008;52.210;21.112;2023-04-01T00:21:04;24.15;;;18.13;;
50988;SDS011;37008;52.210;21.112;2023-04-01T00:23:30;27.27;;;19.85;;
50988;SDS011;37008;52.210;21.112;2023-04-01T00:25:56;27.77;;;18.23;;
50988;SDS011;37008;52.210;21.112;2023-04-01T00:28:24;30.65;;;19.63;;
50988;SDS011;37008;52.210;21.112;2023-04-01T00:30:49;35.72;;;20.92;;
50988;SDS011;37008;52.210;21.112;2023-04-01T00:33:15;36.47;;;20.63;;
50988;SDS011;37008;52.210;21.112;2023-04-01T00:35:42;37.42;;;20.60;;
50988;SDS011;37008;52.210;21.112;2023-04-01T00:38:07;28.65;;;20.13;;
50988;SDS011;37008;52.210;21.112;2023-04-01T00:40:35;32.17;;;21.58;;
50988;SDS011;37008;52.210;21.112;2023-04-01T00:43:03;29.35;;;20.02;;
50988;SDS011;37008;52.210;21.112;2023-04-01T00:45:36;32.85;;;20.98;;
50988;SDS011;37008;52.210;21.112;2023-04-01T00:48:09;31.85;;;21.02;;
50988;SDS011;37008;52.210;21.112;2023-04-01T00:50:38;34.40;;;23.30;;
50988;SDS011;37008;52.210;21.112;2023-04-01T00:53:09;37.15;;;24.42;;
50988;SDS011;37008;52.210;21.112;2023-04-01T00:55:36;38.67;;;23.45;;
50988;SDS011;37008;52.210;21.112;2023-04-01T00:58:07;35.00;;;24.08;;
50988;SDS011;37008;52.210;21.112;2023-04-01T01:00:39;38.60;;;24.25;;
50988;SDS011;37008;52.210;21.112;2023-04-01T01:03:05;35.25;;;22.75;;
50988;SDS011;37008;52.210;21.112;2023-04-01T01:05:38;35.00;;;22.88;;
50988;SDS011;37008;52.210;21.112;2023-04-01T01:11:13;39.78;;;23.80;;
50988;SDS011;37008;52.210;21.112;2023-04-01T01:16:29;42.05;;;24.48;;
50988;SDS011;37008;52.210;21.112;2023-04-01T01:24:26;34.38;;;24.33;;
50988;SDS011;37008;52.210;21.112;2023-04-01T01:27:14;45.40;;;25.08;;
50988;SDS011;37008;52.210;21.112;2023-04-01T01:33:04;46.00;;;28.45;;
50988;SDS011;37008;52.210;21.112;2023-04-01T01:35:46;43.75;;;26.55;;
50988;SDS011;37008;52.210;21.112;2023-04-01T01:38:16;42.25;;;24.85;;
50988;SDS011;37008;52.210;21.112;2023-04-01T01:40:46;39.88;;;25.17;;
50988;SDS011;37008;52.210;21.112;2023-04-01T01:43:17;38.40;;;27.08;;
50988;SDS011;37008;52.210;21.112;2023-04-01T01:45:48;40.92;;;26.33;;
50988;SDS011;37008;52.210;21.112;2023-04-01T01:48:19;44.88;;;28.38;;
50988;SDS011;37008;52.210;21.112;2023-04-01T01:50:45;40.53;;;25.90;;
50988;SDS011;37008;52.210;21.112;2023-04-01T01:53:13;40.65;;;26.08;;
50988;SDS011;37008;52.210;21.112;2023-04-01T01:55:43;42.42;;;27.17;;
50988;SDS011;37008;52.210;21.112;2023-04-01T02:00:50;38.55;;;25.20;;
50988;SDS011;37008;52.210;21.112;2023-04-01T02:03:20;34.55;;;24.35;;
50988;SDS011;37008;52.210;21.112;2023-04-01T02:05:48;39.63;;;23.50;;
50988;SDS011;37008;52.210;21.112;2023-04-01T02:08:18;35.88;;;23.45;;
50988;SDS011;37008;52.210;21.112;2023-04-01T02:11:05;37.92;;;25.30;;
50988;SDS011;37008;52.210;21.112;2023-04-01T02:16:27;34.08;;;22.95;;
50988;SDS011;37008;52.210;21.112;2023-04-01T02:18:57;36.08;;;24.70;;
50988;SDS011;37008;52.210;21.112;2023-04-01T02:21:26;38.85;;;25.15;;
50988;SDS011;37008;52.210;21.112;2023-04-01T02:23:54;37.00;;;24.13;;
50988;SDS011;37008;52.210;21.112;2023-04-01T02:26:21;36.60;;;23.58;;
50988;SDS011;37008;52.210;21.112;2023-04-01T02:28:50;36.28;;;23.45;;
50988;SDS011;37008;52.210;21.112;2023-04-01T02:31:17;29.83;;;22.35;;
50988;SDS011;37008;52.210;21.112;2023-04-01T02:33:44;37.35;;;23.67;;
50988;SDS011;37008;52.210;21.112;2023-04-01T02:36:12;37.90;;;23.70;;
50988;SDS011;37008;52.210;21.112;2023-04-01T02:38:39;35.38;;;24.30;;
50988;SDS011;37008;52.210;21.112;2023-04-01T02:41:07;35.65;;;24.75;;
50988;SDS011;37008;52.210;21.112;2023-04-01T02:43:33;40.90;;;24.52;;
50988;SDS011;37008;52.210;21.112;2023-04-01T02:45:58;38.13;;;26.38;;
50988;SDS011;37008;52.210;21.112;2023-04-01T02:48:24;34.42;;;24.77;;
50988;SDS011;37008;52.210;21.112;2023-04-01T02:50:50;42.60;;;26.63;;
50988;SDS011;37008;52.210;21.112;2023-04-01T02:53:15;42.13;;;28.38;;
50988;SDS011;37008;52.210;21.112;2023-04-01T02:55:41;41.55;;;27.02;;
50988;SDS011;37008;52.210;21.112;2023-04-01T02:58:07;41.88;;;27.77;;
50988;SDS011;37008;52.210;21.112;2023-04-01T03:00:33;42.70;;;28.60;;
50988;SDS011;37008;52.210;21.112;2023-04-01T03:02:58;43.70;;;28.85;;
50988;SDS011;37008;52.210;21.112;2023-04-01T03:05:24;43.20;;;27.52;;
50988;SDS011;37008;52.210;21.112;2023-04-01T03:07:50;39.28;;;27.38;;
50988;SDS011;37008;52.210;21.112;2023-04-01T03:10:16;48.95;;;29.90;;
50988;SDS011;37008;52.210;21.112;2023-04-01T03:12:42;44.75;;;30.05;;
50988;SDS011;37008;52.210;21.112;2023-04-01T03:15:09;49.63;;;30.42;;
50988;SDS011;37008;52.210;21.112;2023-04-01T03:17:37;48.80;;;32.05;;
50988;SDS011;37008;52.210;21.112;2023-04-01T03:20:03;51.38;;;32.22;;
50988;SDS011;37008;52.210;21.112;2023-04-01T03:22:29;46.17;;;31.85;;
50988;SDS011;37008;52.210;21.112;2023-04-01T03:24:55;52.08;;;34.17;;
50988;SDS011;37008;52.210;21.112;2023-04-01T03:27:21;49.95;;;34.58;;
50988;SDS011;37008;52.210;21.112;2023-04-01T03:29:47;50.75;;;33.65;;
50988;SDS011;37008;52.210;21.112;2023-04-01T03:32:12;55.15;;;36.25;;
50988;SDS011;37008;52.210;21.112;2023-04-01T03:34:38;53.17;;;34.92;;
50988;SDS011;37008;52.210;21.112;2023-04-01T03:37:03;51.13;;;34.45;;
50988;SDS011;37008;52.210;21.112;2023-04-01T03:39:30;53.60;;;34.47;;
50988;SDS011;37008;52.210;21.112;2023-04-01T03:41:56;48.65;;;33.42;;
50988;SDS011;37008;52.210;21.112;2023-04-01T03:44:21;52.92;;;34.58;;
50988;SDS011;37008;52.210;21.112;2023-04-01T03:46:47;55.33;;;35.17;;
50988;SDS011;37008;52.210;21.112;2023-04-01T03:49:12;49.90;;;33.15;;
50988;SDS011;37008;52.210;21.112;2023-04-01T03:51:39;52.90;;;33.58;;
50988;SDS011;37008;52.210;21.112;2023-04-01T03:54:05;50.95;;;35.05;;
50988;SDS011;37008;52.210;21.112;2023-04-01T03:56:31;49.83;;;34.45;;
50988;SDS011;37008;52.210;21.112;2023-04-01T03:58:57;51.55;;;33.72;;
50988;SDS011;37008;52.210;21.112;2023-04-01T04:01:23;48.53;;;33.63;;
50988;SDS011;37008;52.210;21.112;2023-04-01T04:03:50;52.75;;;33.72;;
50988;SDS011;37008;52.210;21.112;2023-04-01T04:06:16;46.88;;;33.15;;
50988;SDS011;37008;52.210;21.112;2023-04-01T04:08:43;44.53;;;33.05;;
50988;SDS011;37008;52.210;21.112;2023-04-01T04:11:09;45.47;;;32.25;;
50988;SDS011;37008;52.210;21.112;2023-04-01T04:13:35;50.17;;;33.70;;
50988;SDS011;37008;52.210;21.112;2023-04-01T04:16:01;47.08;;;33.40;;
50988;SDS011;37008;52.210;21.112;2023-04-01T04:18:27;48.05;;;32.35;;
50988;SDS011;37008;52.210;21.112;2023-04-01T04:20:53;44.47;;;34.20;;
50988;SDS011;37008;52.210;21.112;2023-04-01T04:23:20;45.67;;;31.67;;
50988;SDS011;37008;52.210;21.112;2023-04-01T04:26:18;42.08;;;31.52;;
50988;SDS011;37008;52.210;21.112;2023-04-01T04:28:39;42.50;;;31.00;;
50988;SDS011;37008;52.210;21.112;2023-04-01T04:31:05;40.47;;;29.23;;
50988;SDS011;37008;52.210;21.112;2023-04-01T04:33:32;39.63;;;29.05;;
50988;SDS011;37008;52.210;21.112;2023-04-01T04:35:58;36.28;;;27.90;;
50988;SDS011;37008;52.210;21.112;2023-04-01T04:38:24;37.42;;;27.27;;
50988;SDS011;37008;52.210;21.112;2023-04-01T04:40:50;33.42;;;27.08;;
50988;SDS011;37008;52.210;21.112;2023-04-01T04:43:16;31.17;;;25.55;;
50988;SDS011;37008;52.210;21.112;2023-04-01T04:45:43;39.30;;;25.45;;
50988;SDS011;37008;52.210;21.112;2023-04-01T04:48:10;30.27;;;24.70;;
50988;SDS011;37008;52.210;21.112;2023-04-01T04:50:41;30.17;;;22.25;;
50988;SDS011;37008;52.210;21.112;2023-04-01T04:53:09;27.13;;;22.35;;
50988;SDS011;37008;52.210;21.112;2023-04-01T04:55:35;30.70;;;22.85;;
50988;SDS011;37008;52.210;21.112;2023-04-01T04:58:01;24.38;;;19.73;;
50988;SDS011;37008;52.210;21.112;2023-04-01T05:00:26;26.08;;;20.42;;
50988;SDS011;37008;52.210;21.112;2023-04-01T05:02:52;28.23;;;19.75;;
50988;SDS011;37008;52.210;21.112;2023-04-01T05:05:17;23.70;;;19.40;;
50988;SDS011;37008;52.210;21.112;2023-04-01T05:07:43;22.67;;;18.88;;
50988;SDS011;37008;52.210;21.112;2023-04-01T05:10:09;25.88;;;18.77;;
50988;SDS011;37008;52.210;21.112;2023-04-01T05:12:35;22.23;;;17.80;;
50988;SDS011;37008;52.210;21.112;2023-04-01T05:15:04;22.85;;;17.73;;
50988;SDS011;37008;52.210;21.112;2023-04-01T05:17:31;18.55;;;15.77;;
50988;SDS011;37008;52.210;21.112;2023-04-01T05:19:57;20.00;;;16.15;;
50988;SDS011;37008;52.210;21.112;2023-04-01T05:22:22;21.60;;;15.30;;
50988;SDS011;37008;52.210;21.112;2023-04-01T05:24:48;17.48;;;15.60;;
50988;SDS011;37008;52.210;21.112;2023-04-01T05:27:14;18.85;;;15.57;;
50988;SDS011;37008;52.210;21.112;2023-04-01T05:29:40;21.27;;;16.42;;
50988;SDS011;37008;52.210;21.112;2023-04-01T05:32:05;17.42;;;14.30;;
50988;SDS011;37008;52.210;21.112;2023-04-01T05:34:31;17.27;;;15.32;;
50988;SDS011;37008;52.210;21.112;2023-04-01T05:36:56;21.45;;;15.27;;
50988;SDS011;37008;52.210;21.112;2023-04-01T05:39:22;16.23;;;14.23;;
50988;SDS011;37008;52.210;21.112;2023-04-01T05:41:48;22.13;;;14.57;;
50988;SDS011;37008;52.210;21.112;2023-04-01T05:44:14;17.90;;;14.93;;
50988;SDS011;37008;52.210;21.112;2023-04-01T05:46:39;16.27;;;13.68;;
50988;SDS011;37008;52.210;21.112;2023-04-01T05:49:06;18.00;;;13.32;;
50988;SDS011;37008;52.210;21.112;2023-04-01T05:51:31;15.85;;;13.82;;
50988;SDS011;37008;52.210;21.112;2023-04-01T05:53:57;18.63;;;14.75;;
50988;SDS011;37008;52.210;21.112;2023-04-01T05:56:22;14.98;;;13.30;;
50988;SDS011;37008;52.210;21.112;2023-04-01T05:58:50;16.95;;;13.10;;
50988;SDS011;37008;52.210;21.112;2023-04-01T06:01:18;15.32;;;11.65;;
50988;SDS011;37008;52.210;21.112;2023-04-01T06:03:44;15.40;;;12.25;;
50988;SDS011;37008;52.210;21.112;2023-04-01T06:06:14;15.40;;;12.18;;
50988;SDS011;37008;52.210;21.112;2023-04-01T06:08:41;15.73;;;12.70;;
50988;SDS011;37008;52.210;21.112;2023-04-01T06:11:12;16.58;;;13.50;;
50988;SDS011;37008;52.210;21.112;2023-04-01T06:19:36;11.93;;;10.60;;
50988;SDS011;37008;52.210;21.112;2023-04-01T06:27:40;13.13;;;11.18;;
50988;SDS011;37008;52.210;21.112;2023-04-01T06:30:52;12.65;;;10.07;;
50988;SDS011;37008;52.210;21.112;2023-04-01T06:33:49;13.70;;;10.95;;
50988;SDS011;37008;52.210;21.112;2023-04-01T06:40:06;16.88;;;11.45;;
50988;SDS011;37008;52.210;21.112;2023-04-01T06:53:56;18.88;;;16.30;;
50988;SDS011;37008;52.210;21.112;2023-04-01T06:56:28;18.45;;;16.17;;
50988;SDS011;37008;52.210;21.112;2023-04-01T06:58:58;19.45;;;16.75;;
50988;SDS011;37008;52.210;21.112;2023-04-01T07:01:33;19.67;;;17.20;;
50988;SDS011;37008;52.210;21.112;2023-04-01T07:04:06;20.90;;;18.05;;
50988;SDS011;37008;52.210;21.112;2023-04-01T07:06:39;19.60;;;17.25;;
50988;SDS011;37008;52.210;21.112;2023-04-01T07:09:08;17.88;;;15.82;;
50988;SDS011;37008;52.210;21.112;2023-04-01T07:11:38;19.23;;;17.23;;
50988;SDS011;37008;52.210;21.112;2023-04-01T07:14:50;19.35;;;17.27;;
50988;SDS011;37008;52.210;21.112;2023-04-01T07:19:52;18.35;;;16.40;;
50988;SDS011;37008;52.210;21.112;2023-04-01T07:22:35;20.98;;;17.08;;
50988;SDS011;37008;52.210;21.112;2023-04-01T07:27:58;17.92;;;16.08;;
50988;SDS011;37008;52.210;21.112;2023-04-01T07:30:39;20.88;;;17.67;;
50988;SDS011;37008;52.210;21.112;2023-04-01T07:33:36;18.60;;;16.55;;
50988;SDS011;37008;52.210;21.112;2023-04-01T07:36:22;19.95;;;16.90;;
50988;SDS011;37008;52.210;21.112;2023-04-01T07:41:45;21.70;;;17.48;;
50988;SDS011;37008;52.210;21.112;2023-04-01T08:00:51;27.00;;;22.23;;
50988;SDS011;37008;52.210;21.112;2023-04-01T08:03:43;25.35;;;22.63;;
50988;SDS011;37008;52.210;21.112;2023-04-01T08:06:24;25.88;;;22.10;;
50988;SDS011;37008;52.210;21.112;2023-04-01T08:17:34;22.20;;;19.70;;
50988;SDS011;37008;52.210;21.112;2023-04-01T08:20:18;22.98;;;19.30;;
50988;SDS011;37008;52.210;21.112;2023-04-01T08:22:57;23.05;;;19.45;;
50988;SDS011;37008;52.210;21.112;2023-04-01T08:25:33;26.65;;;18.60;;
50988;SDS011;37008;52.210;21.112;2023-04-01T08:31:47;18.25;;;16.33;;
50988;SDS011;37008;52.210;21.112;2023-04-01T08:33:57;15.57;;;13.85;;
50988;SDS011;37008;52.210;21.112;2023-04-01T08:36:31;14.98;;;13.38;;
50988;SDS011;37008;52.210;21.112;2023-04-01T08:39:34;13.85;;;11.77;;
50988;SDS011;37008;52.210;21.112;2023-04-01T08:44:54;12.10;;;10.77;;
50988;SDS011;37008;52.210;21.112;2023-04-01T08:47:33;11.85;;;10.65;;
50988;SDS011;37008;52.210;21.112;2023-04-01T08:50:08;10.75;;;9.70;;
50988;SDS011;37008;52.210;21.112;2023-04-01T09:10:21;13.45;;;12.05;;
50988;SDS011;37008;52.210;21.112;2023-04-01T09:21:11;9.88;;;8.85;;
50988;SDS011;37008;52.210;21.112;2023-04-01T09:24:26;8.90;;;7.20;;
50988;SDS011;37008;52.210;21.112;2023-04-01T09:29:29;7.20;;;5.53;;
50988;SDS011;37008;52.210;21.112;2023-04-01T09:38:11;4.10;;;3.60;;
50988;SDS011;37008;52.210;21.112;2023-04-01T09:43:46;6.03;;;4.05;;
50988;SDS011;37008;52.210;21.112;2023-04-01T09:51:38;6.63;;;6.03;;
50988;SDS011;37008;52.210;21.112;2023-04-01T09:54:15;8.48;;;7.03;;
50988;SDS011;37008;52.210;21.112;2023-04-01T10:08:31;6.70;;;4.72;;
50988;SDS011;37008;52.210;21.112;2023-04-01T10:11:42;5.35;;;4.63;;
50988;SDS011;37008;52.210;21.112;2023-04-01T10:20:54;5.40;;;3.88;;
50988;SDS011;37008;52.210;21.112;2023-04-01T10:26:23;6.00;;;4.45;;
50988;SDS011;37008;52.210;21.112;2023-04-01T10:32:21;7.25;;;5.18;;
50988;SDS011;37008;52.210;21.112;2023-04-01T10:43:15;7.45;;;5.90;;
50988;SDS011;37008;52.210;21.112;2023-04-01T10:46:05;8.95;;;6.75;;
50988;SDS011;37008;52.210;21.112;2023-04-01T10:48:58;7.38;;;6.53;;
50988;SDS011;37008;52.210;21.112;2023-04-01T11:05:40;5.65;;;4.90;;
50988;SDS011;37008;52.210;21.112;2023-04-01T11:08:48;5.75;;;5.18;;
50988;SDS011;37008;52.210;21.112;2023-04-01T11:42:49;7.47;;;4.95;;
50988;SDS011;37008;52.210;21.112;2023-04-01T11:50:31;5.75;;;4.13;;
50988;SDS011;37008;52.210;21.112;2023-04-01T11:55:35;5.05;;;4.10;;
50988;SDS011;37008;52.210;21.112;2023-04-01T12:07:12;6.13;;;5.28;;
50988;SDS011;37008;52.210;21.112;2023-04-01T12:18:26;7.32;;;6.30;;
50988;SDS011;37008;52.210;21.112;2023-04-01T12:32:03;6.65;;;5.95;;
50988;SDS011;37008;52.210;21.112;2023-04-01T12:48:45;3.78;;;2.38;;
50988;SDS011;37008;52.210;21.112;2023-04-01T12:54:11;2.88;;;1.70;;
50988;SDS011;37008;52.210;21.112;2023-04-01T12:56:46;3.50;;;2.50;;
50988;SDS011;37008;52.210;21.112;2023-04-01T12:59:21;2.23;;;1.80;;
50988;SDS011;37008;52.210;21.112;2023-04-01T13:09:47;3.42;;;2.22;;
50988;SDS011;37008;52.210;21.112;2023-04-01T13:12:24;2.10;;;1.60;;
50988;SDS011;37008;52.210;21.112;2023-04-01T13:26:18;3.78;;;2.38;;
50988;SDS011;37008;52.210;21.112;2023-04-01T13:34:32;3.30;;;1.98;;
50988;SDS011;37008;52.210;21.112;2023-04-01T13:37:15;2.88;;;2.45;;
50988;SDS011;37008;52.210;21.112;2023-04-01T13:43:17;4.07;;;2.35;;
50988;SDS011;37008;52.210;21.112;2023-04-01T13:57:03;4.30;;;3.00;;
50988;SDS011;37008;52.210;21.112;2023-04-01T14:11:05;7.28;;;3.92;;
50988;SDS011;37008;52.210;21.112;2023-04-01T14:13:46;4.00;;;3.10;;
50988;SDS011;37008;52.210;21.112;2023-04-01T14:32:49;2.80;;;2.22;;
50988;SDS011;37008;52.210;21.112;2023-04-01T14:49:41;3.28;;;1.88;;
50988;SDS011;37008;52.210;21.112;2023-04-01T14:52:51;2.42;;;1.92;;
50988;SDS011;37008;52.210;21.112;2023-04-01T14:54:56;2.05;;;1.80;;
50988;SDS011;37008;52.210;21.112;2023-04-01T14:57:30;2.20;;;1.65;;
50988;SDS011;37008;52.210;21.112;2023-04-01T15:00:00;2.30;;;1.70;;
50988;SDS011;37008;52.210;21.112;2023-04-01T15:02:45;3.58;;;2.03;;
50988;SDS011;37008;52.210;21.112;2023-04-01T15:11:24;3.05;;;2.08;;
50988;SDS011;37008;52.210;21.112;2023-04-01T15:14:02;3.38;;;2.60;;
50988;SDS011;37008;52.210;21.112;2023-04-01T15:24:56;3.67;;;2.35;;
50988;SDS011;37008;52.210;21.112;2023-04-01T15:27:47;5.30;;;2.70;;
50988;SDS011;37008;52.210;21.112;2023-04-01T15:30:33;2.83;;;2.28;;
50988;SDS011;37008;52.210;21.112;2023-04-01T15:38:05;6.47;;;2.90;;
50988;SDS011;37008;52.210;21.112;2023-04-01T15:46:09;6.65;;;3.75;;
50988;SDS011;37008;52.210;21.112;2023-04-01T15:51:48;4.97;;;3.65;;
50988;SDS011;37008;52.210;21.112;2023-04-01T16:15:39;4.25;;;2.88;;
50988;SDS011;37008;52.210;21.112;2023-04-01T16:18:33;4.40;;;2.78;;
50988;SDS011;37008;52.210;21.112;2023-04-01T16:21:08;5.30;;;3.13;;
50988;SDS011;37008;52.210;21.112;2023-04-01T16:23:56;5.90;;;3.55;;
50988;SDS011;37008;52.210;21.112;2023-04-01T16:26:29;5.13;;;3.20;;
50988;SDS011;37008;52.210;21.112;2023-04-01T16:29:11;3.57;;;2.83;;
50988;SDS011;37008;52.210;21.112;2023-04-01T16:35:00;4.78;;;2.70;;
50988;SDS011;37008;52.210;21.112;2023-04-01T16:48:58;3.97;;;2.50;;
50988;SDS011;37008;52.210;21.112;2023-04-01T16:51:26;3.97;;;2.13;;
50988;SDS011;37008;52.210;21.112;2023-04-01T16:54:04;4.60;;;2.70;;
50988;SDS011;37008;52.210;21.112;2023-04-01T16:56:47;4.60;;;2.97;;
50988;SDS011;37008;52.210;21.112;2023-04-01T17:02:12;4.55;;;2.80;;
50988;SDS011;37008;52.210;21.112;2023-04-01T17:07:29;4.45;;;3.25;;
50988;SDS011;37008;52.210;21.112;2023-04-01T17:10:06;6.43;;;2.85;;
50988;SDS011;37008;52.210;21.112;2023-04-01T17:18:32;6.57;;;3.65;;
50988;SDS011;37008;52.210;21.112;2023-04-01T17:23:49;4.70;;;3.38;;
50988;SDS011;37008;52.210;21.112;2023-04-01T17:29:12;5.90;;;3.80;;
50988;SDS011;37008;52.210;21.112;2023-04-01T17:34:42;8.00;;;4.35;;
50988;SDS011;37008;52.210;21.112;2023-04-01T17:48:20;7.13;;;5.82;;
50988;SDS011;37008;52.210;21.112;2023-04-01T17:53:45;7.28;;;5.28;;
50988;SDS011;37008;52.210;21.112;2023-04-01T17:56:24;7.65;;;4.63;;
50988;SDS011;37008;52.210;21.112;2023-04-01T17:59:39;6.28;;;4.60;;
50988;SDS011;37008;52.210;21.112;2023-04-01T18:07:56;6.35;;;4.53;;
50988;SDS011;37008;52.210;21.112;2023-04-01T18:10:28;6.55;;;4.90;;
50988;SDS011;37008;52.210;21.112;2023-04-01T18:19:48;7.28;;;5.70;;
50988;SDS011;37008;52.210;21.112;2023-04-01T18:23:02;8.02;;;5.63;;
50988;SDS011;37008;52.210;21.112;2023-04-01T18:30:53;9.07;;;5.55;;
50988;SDS011;37008;52.210;21.112;2023-04-01T18:33:29;7.85;;;5.03;;
50988;SDS011;37008;52.210;21.112;2023-04-01T18:39:04;8.80;;;7.22;;
50988;SDS011;37008;52.210;21.112;2023-04-01T18:41:50;9.10;;;7.05;;
50988;SDS011;37008;52.210;21.112;2023-04-01T18:50:26;9.32;;;7.38;;
50988;SDS011;37008;52.210;21.112;2023-04-01T18:56:45;8.98;;;7.95;;
50988;SDS011;37008;52.210;21.112;2023-04-01T19:04:33;9.48;;;8.05;;
50988;SDS011;37008;52.210;21.112;2023-04-01T19:13:10;10.75;;;8.30;;
50988;SDS011;37008;52.210;21.112;2023-04-01T19:15:52;9.82;;;6.95;;
50988;SDS011;37008;52.210;21.112;2023-04-01T19:21:14;9.32;;;7.88;;
50988;SDS011;37008;52.210;21.112;2023-04-01T19:30:02;11.27;;;9.20;;
50988;SDS011;37008;52.210;21.112;2023-04-01T19:44:04;11.35;;;9.77;;
50988;SDS011;37008;52.210;21.112;2023-04-01T19:49:32;12.57;;;9.65;;
50988;SDS011;37008;52.210;21.112;2023-04-01T19:52:12;11.48;;;9.60;;
50988;SDS011;37008;52.210;21.112;2023-04-01T19:54:51;12.75;;;10.85;;
50988;SDS011;37008;52.210;21.112;2023-04-01T19:57:23;12.00;;;10.13;;
50988;SDS011;37008;52.210;21.112;2023-04-01T20:00:33;12.23;;;10.10;;
50988;SDS011;37008;52.210;21.112;2023-04-01T20:05:49;11.15;;;9.52;;
50988;SDS011;37008;52.210;21.112;2023-04-01T20:19:44;11.27;;;8.75;;
50988;SDS011;37008;52.210;21.112;2023-04-01T20:22:28;11.32;;;9.55;;
50988;SDS011;37008;52.210;21.112;2023-04-01T20:47:02;9.13;;;7.43;;
50988;SDS011;37008;52.210;21.112;2023-04-01T20:49:41;11.68;;;8.23;;
50988;SDS011;37008;52.210;21.112;2023-04-01T20:57:33;7.72;;;6.10;;
50988;SDS011;37008;52.210;21.112;2023-04-01T21:00:22;9.52;;;7.18;;
50988;SDS011;37008;52.210;21.112;2023-04-01T21:03:01;8.70;;;7.35;;
50988;SDS011;37008;52.210;21.112;2023-04-01T21:11:42;8.30;;;6.97;;
50988;SDS011;37008;52.210;21.112;2023-04-01T21:14:27;10.32;;;7.63;;
50988;SDS011;37008;52.210;21.112;2023-04-01T21:26:04;6.78;;;5.80;;
50988;SDS011;37008;52.210;21.112;2023-04-01T21:53:55;6.68;;;5.22;;
50988;SDS011;37008;52.210;21.112;2023-04-01T22:02:59;7.28;;;5.30;;
50988;SDS011;37008;52.210;21.112;2023-04-01T22:05:43;5.93;;;4.57;;
50988;SDS011;37008;52.210;21.112;2023-04-01T22:16:45;7.60;;;6.15;;
50988;SDS011;37008;52.210;21.112;2023-04-01T22:22:25;6.68;;;5.93;;
50988;SDS011;37008;52.210;21.112;2023-04-01T22:25:23;7.50;;;6.20;;
50988;SDS011;37008;52.210;21.112;2023-04-01T22:28:16;8.25;;;6.40;;
50988;SDS011;37008;52.210;21.112;2023-04-01T22:30:49;9.50;;;6.57;;
50988;SDS011;37008;52.210;21.112;2023-04-01T22:38:41;7.03;;;4.80;;
50988;SDS011;37008;52.210;21.112;2023-04-01T22:43:57;6.75;;;5.40;;
50988;SDS011;37008;52.210;21.112;2023-04-01T22:56:57;7.88;;;5.70;;
50988;SDS011;37008;52.210;21.112;2023-04-01T22:59:35;7.68;;;5.45;;
50988;SDS011;37008;52.210;21.112;2023-04-01T23:04:47;7.38;;;5.28;;
50988;SDS011;37008;52.210;21.112;2023-04-01T23:10:54;8.30;;;5.88;;
50988;SDS011;37008;52.210;21.112;2023-04-01T23:13:30;7.43;;;6.03;;
50988;SDS011;37008;52.210;21.112;2023-04-01T23:16:02;8.30;;;6.15;;
50988;SDS011;37008;52.210;21.112;2023-04-01T23:18:37;7.65;;;6.30;;
50988;SDS011;37008;52.210;21.112;2023-04-01T23:24:19;9.55;;;6.45;;
50988;SDS011;37008;52.210;21.112;2023-04-01T23:29:45;8.95;;;5.65;;
50988;SDS011;37008;52.210;21.112;2023-04-01T23:32:15;10.20;;;7.35;;
50988;SDS011;37008;52.210;21.112;2023-04-01T23:34:47;10.43;;;8.00;;
50988;SDS011;37008;52.210;21.112;2023-04-01T23:37:14;9.73;;;7.03;;
50988;SDS011;37008;52.210;21.112;2023-04-01T23:39:43;9.15;;;7.00;;
50988;SDS011;37008;52.210;21.112;2023-04-01T23:42:15;9.52;;;6.88;;
50988;SDS011;37008;52.210;21.112;2023-04-01T23:45:31;10.98;;;6.65;;
50988;SDS011;37008;52.210;21.112;2023-04-01T23:47:50;9.15;;;6.78;;
50988;SDS011;37008;52.210;21.112;2023-04-01T23:50:20;12.20;;;7.97;;
50988;SDS011;37008;52.210;21.112;2023-04-01T23:52:52;9.30;;;6.97;;
50988;SDS011;37008;52.210;21.112;2023-04-01T23:55:29;10.40;;;7.65;;
